Time;durP1;ratioP1;P1;durP2;ratioP2;P2;SDS_P1;SDS_P2;PMS_P1;PMS_P2;Temp;Humidity;BMP_temperature;BMP_pressure;BME280_temperature;BME280_humidity;BME280_pressure;Samples;Min_cycle;Max_cycle;Signal;HPM_P1;HPM_P2
2023/07/19 00:01:47;;;;;;;;;;;;;;;18.24;100.00;96281.34;5107392;28;20210;-72
2023/07/19 00:04:12;;;;;;;;;;;;;;;18.21;100.00;96273.16;5107314;28;19949;-71
2023/07/19 00:06:38;;;;;;;;;;;;;;;18.19;100.00;96262.03;5089550;28;19952;-72
2023/07/19 00:09:04;;;;;;;;;;;;;;;18.17;100.00;96272.09;5107573;28;20184;-72
2023/07/19 00:11:30;;;;;;;;;;;;;;;18.13;100.00;96257.78;5108159;28;19934;-79
2023/07/19 00:13:56;;;;;;;;;;;;;;;18.10;100.00;96247.69;5107452;28;19941;-80
2023/07/19 00:16:22;;;;;;;;;;;;;;;18.08;100.00;96253.28;5108048;28;19941;-80
2023/07/19 00:18:48;;;;;;;;;;;;;;;18.05;100.00;96253.81;5105222;28;19960;-80
2023/07/19 00:21:14;;;;;;;;;;;;;;;18.02;100.00;96246.41;5105907;28;20213;-80
2023/07/19 00:23:40;;;;;;;;;;;;;;;18.01;100.00;96250.13;5106111;28;20090;-80
2023/07/19 00:26:05;;;;;;;;;;;;;;;18.01;100.00;96263.38;5105018;28;20228;-72
2023/07/19 00:28:31;;;;;;;;;;;;;;;17.99;100.00;96254.91;5106507;28;19936;-84
2023/07/19 00:31:01;;;;;;;;;;;;;;;17.96;100.00;96253.59;5105995;28;19937;-84
2023/07/19 00:33:27;;;;;;;;;;;;;;;17.95;100.00;96251.19;5105380;28;20248;-86
2023/07/19 00:35:53;;;;;;;;;;;;;;;17.92;100.00;96257.84;5104924;28;19944;-84
2023/07/19 00:38:21;;;;;;;;;;;;;;;17.90;100.00;96261.84;5106101;28;19936;-84
2023/07/19 00:40:47;;;;;;;;;;;;;;;17.91;100.00;96263.41;5106005;28;19938;-76
2023/07/19 00:43:13;;;;;;;;;;;;;;;17.89;100.00;96262.88;5104686;28;19940;-72
2023/07/19 00:45:43;;;;;;;;;;;;;;;17.85;100.00;96260.00;5106278;28;19939;-72
2023/07/19 00:48:09;;;;;;;;;;;;;;;17.82;100.00;96263.94;5105892;28;19937;-72
2023/07/19 00:50:35;;;;;;;;;;;;;;;17.81;100.00;96256.25;5105610;28;20156;-72
2023/07/19 00:53:01;;;;;;;;;;;;;;;17.79;100.00;96250.41;5105885;28;19945;-72
2023/07/19 00:55:27;;;;;;;;;;;;;;;17.74;100.00;96251.19;5106077;28;19941;-71
2023/07/19 00:57:53;;;;;;;;;;;;;;;17.73;100.00;96256.78;5105501;28;19959;-71
2023/07/19 01:00:19;;;;;;;;;;;;;;;17.72;100.00;96257.84;5105247;28;19941;-72
2023/07/19 01:02:45;;;;;;;;;;;;;;;17.71;100.00;96257.06;5105522;28;19939;-72
2023/07/19 01:05:11;;;;;;;;;;;;;;;17.71;100.00;96258.91;5087540;28;19945;-71
2023/07/19 01:07:37;;;;;;;;;;;;;;;17.71;100.00;96261.56;5105138;28;19943;-73
2023/07/19 01:10:04;;;;;;;;;;;;;;;17.72;100.00;96255.19;5104116;28;19997;-73
2023/07/19 01:12:30;;;;;;;;;;;;;;;17.73;100.00;96254.16;5087352;28;19958;-73
2023/07/19 01:14:56;;;;;;;;;;;;;;;17.74;100.00;96250.41;5088059;28;20234;-73
2023/07/19 01:17:22;;;;;;;;;;;;;;;17.72;100.00;96247.22;5022367;28;1827472;-74
2023/07/19 01:19:48;;;;;;;;;;;;;;;17.70;100.00;96242.22;5089005;28;19996;-74
2023/07/19 01:22:13;;;;;;;;;;;;;;;17.69;100.00;96237.19;5105764;28;19990;-72
2023/07/19 01:24:40;;;;;;;;;;;;;;;17.68;100.00;96243.53;5088131;28;19936;-79
2023/07/19 01:27:06;;;;;;;;;;;;;;;17.65;100.00;96243.00;5105506;28;19935;-80
2023/07/19 01:29:32;;;;;;;;;;;;;;;17.64;100.00;96244.06;5105396;28;19957;-79
2023/07/19 01:31:58;;;;;;;;;;;;;;;17.62;100.00;96243.56;5087878;28;19940;-81
2023/07/19 01:34:24;;;;;;;;;;;;;;;17.60;100.00;96250.97;5105967;28;19944;-82
2023/07/19 01:36:50;;;;;;;;;;;;;;;17.56;100.00;96244.63;5106389;28;19942;-81
2023/07/19 01:39:15;;;;;;;;;;;;;;;17.54;100.00;96244.09;5105483;28;19941;-71
2023/07/19 01:41:41;;;;;;;;;;;;;;;17.52;100.00;96238.25;5104679;28;19946;-75
2023/07/19 01:44:07;;;;;;;;;;;;;;;17.49;100.00;96238.00;5088265;28;19951;-75
2023/07/19 01:46:35;;;;;;;;;;;;;;;17.45;100.00;96238.53;5087663;28;20011;-75
2023/07/19 01:49:01;;;;;;;;;;;;;;;17.43;100.00;96247.81;5103610;28;19956;-75
2023/07/19 01:51:27;;;;;;;;;;;;;;;17.41;100.00;96258.69;5087593;28;19947;-74
2023/07/19 01:53:53;;;;;;;;;;;;;;;17.38;100.00;96253.09;5087527;28;19944;-74
2023/07/19 01:56:19;;;;;;;;;;;;;;;17.34;100.00;96254.69;5105004;28;19965;-73
2023/07/19 01:58:45;;;;;;;;;;;;;;;17.31;100.00;96257.88;5087393;28;19939;-83
2023/07/19 02:01:11;;;;;;;;;;;;;;;17.29;100.00;96263.44;5105066;28;19951;-72
2023/07/19 02:03:37;;;;;;;;;;;;;;;17.28;100.00;96261.06;5087317;28;19949;-74
2023/07/19 02:06:03;;;;;;;;;;;;;;;17.29;100.00;96250.19;5104129;28;19943;-73
2023/07/19 02:08:29;;;;;;;;;;;;;;;17.27;100.00;96252.31;5105063;28;20210;-72
2023/07/19 02:10:54;;;;;;;;;;;;;;;17.29;100.00;96260.00;5104081;28;19952;-72
2023/07/19 02:13:20;;;;;;;;;;;;;;;17.28;100.00;96256.53;5087199;28;19951;-72
2023/07/19 02:15:46;;;;;;;;;;;;;;;17.28;100.00;96261.84;5103986;28;19933;-73
2023/07/19 02:18:12;;;;;;;;;;;;;;;17.28;100.00;96261.06;5104182;28;19988;-72
2023/07/19 02:20:43;;;;;;;;;;;;;;;17.27;100.00;96262.13;5105589;28;20220;-74
2023/07/19 02:23:09;;;;;;;;;;;;;;;17.26;100.00;96266.66;5105837;28;19944;-73
2023/07/19 02:25:35;;;;;;;;;;;;;;;17.27;100.00;96259.47;5105198;28;19958;-72
2023/07/19 02:28:01;;;;;;;;;;;;;;;17.26;100.00;96269.28;5105710;28;20078;-72
2023/07/19 02:30:26;;;;;;;;;;;;;;;17.27;100.00;96273.50;5104798;28;20263;-73
2023/07/19 02:32:52;;;;;;;;;;;;;;;17.27;100.00;96275.38;5103663;28;19946;-72
2023/07/19 02:35:18;;;;;;;;;;;;;;;17.27;100.00;96276.16;5103744;28;19946;-73
2023/07/19 02:37:44;;;;;;;;;;;;;;;17.25;100.00;96272.97;5087516;28;19946;-71
2023/07/19 02:40:10;;;;;;;;;;;;;;;17.25;100.00;96270.34;5105290;28;19937;-71
2023/07/19 02:42:36;;;;;;;;;;;;;;;17.24;100.00;96277.50;5104730;28;19961;-72
2023/07/19 02:45:02;;;;;;;;;;;;;;;17.23;100.00;96281.19;5104120;28;19949;-73
2023/07/19 02:47:28;;;;;;;;;;;;;;;17.23;100.00;96280.41;5104368;28;19941;-73
2023/07/19 02:49:54;;;;;;;;;;;;;;;17.21;100.00;96271.94;5104781;28;19972;-72
2023/07/19 02:52:19;;;;;;;;;;;;;;;17.18;100.00;96283.84;5104594;28;20129;-73
2023/07/19 02:54:45;;;;;;;;;;;;;;;17.17;100.00;96276.16;5086569;28;19940;-73
2023/07/19 02:57:11;;;;;;;;;;;;;;;17.15;100.00;96284.38;5103317;28;19962;-74
2023/07/19 02:59:37;;;;;;;;;;;;;;;17.11;100.00;96285.16;5103779;28;19936;-74
2023/07/19 03:02:03;;;;;;;;;;;;;;;17.06;100.00;96285.16;5103293;28;19964;-75
2023/07/19 03:04:29;;;;;;;;;;;;;;;17.04;100.00;96294.16;5104142;28;19940;-74
2023/07/19 03:06:56;;;;;;;;;;;;;;;17.00;100.00;96287.00;5086379;28;19950;-74
2023/07/19 03:09:22;;;;;;;;;;;;;;;16.98;100.00;96291.75;5103982;28;19954;-75
2023/07/19 03:11:48;;;;;;;;;;;;;;;16.97;100.00;96300.78;5103179;28;20199;-72
2023/07/19 03:14:14;;;;;;;;;;;;;;;16.94;100.00;96294.13;5103302;28;19977;-73
2023/07/19 03:16:40;;;;;;;;;;;;;;;16.93;100.00;96305.81;5105149;28;19942;-73
2023/07/19 03:19:06;;;;;;;;;;;;;;;16.89;100.00;96302.09;5086226;28;19973;-73
2023/07/19 03:21:32;;;;;;;;;;;;;;;16.85;100.00;96301.00;5087141;28;19967;-73
2023/07/19 03:23:58;;;;;;;;;;;;;;;16.84;100.00;96300.22;5104247;28;19942;-73
2023/07/19 03:26:24;;;;;;;;;;;;;;;16.82;100.00;96301.53;5104426;28;19944;-73
2023/07/19 03:28:49;;;;;;;;;;;;;;;16.82;100.00;96307.63;5103793;28;19943;-72
2023/07/19 03:31:15;;;;;;;;;;;;;;;16.81;100.00;96313.19;5086229;28;19964;-78
2023/07/19 03:33:41;;;;;;;;;;;;;;;16.78;100.00;96303.09;5103584;28;19933;-72
2023/07/19 03:36:07;;;;;;;;;;;;;;;16.75;100.00;96314.19;5086151;28;19946;-73
2023/07/19 03:38:33;;;;;;;;;;;;;;;16.74;100.00;96316.06;5103804;28;19998;-72
2023/07/19 03:41:06;;;;;;;;;;;;;;;16.74;100.00;96317.91;5103686;28;20253;-72
2023/07/19 03:43:32;;;;;;;;;;;;;;;16.72;100.00;96322.66;5086947;28;19947;-72
2023/07/19 03:45:58;;;;;;;;;;;;;;;16.70;100.00;96333.50;5104226;28;19942;-72
2023/07/19 03:48:23;;;;;;;;;;;;;;;16.70;100.00;96330.06;5102981;28;19940;-73
2023/07/19 03:50:57;;;;;;;;;;;;;;;16.68;100.00;96326.88;5085955;28;20162;-73
2023/07/19 03:53:22;;;;;;;;;;;;;;;16.67;100.00;96328.72;5103595;28;19968;-73
2023/07/19 03:55:53;;;;;;;;;;;;;;;16.66;100.00;96331.66;5086532;28;19939;-73
2023/07/19 03:58:19;;;;;;;;;;;;;;;16.63;100.00;96333.75;5103402;28;19945;-73
2023/07/19 04:00:45;;;;;;;;;;;;;;;16.62;100.00;96334.00;5086683;28;19938;-73
2023/07/19 04:03:11;;;;;;;;;;;;;;;16.60;100.00;96334.25;5085826;28;19944;-73
2023/07/19 04:05:37;;;;;;;;;;;;;;;16.58;100.00;96333.72;5086698;28;19934;-78
2023/07/19 04:08:03;;;;;;;;;;;;;;;16.57;100.00;96332.13;5085796;28;19943;-73
2023/07/19 04:10:29;;;;;;;;;;;;;;;16.55;100.00;96338.75;5103755;28;19975;-85
2023/07/19 04:12:55;;;;;;;;;;;;;;;16.55;100.00;96336.91;5089525;28;19940;-85
2023/07/19 04:15:21;;;;;;;;;;;;;;;16.55;100.00;96334.25;5089443;28;20174;-85
2023/07/19 04:17:47;;;;;;;;;;;;;;;16.58;100.00;96343.53;5106231;28;20158;-85
2023/07/19 04:20:12;;;;;;;;;;;;;;;16.58;100.00;96336.38;5090116;28;19941;-85
2023/07/19 04:22:38;;;;;;;;;;;;;;;16.59;100.00;96337.97;5106197;28;19944;-85
2023/07/19 04:25:04;;;;;;;;;;;;;;;16.60;100.00;96339.56;5106163;28;19950;-72
2023/07/19 04:27:31;;;;;;;;;;;;;;;16.62;100.00;96341.94;5106142;28;19940;-74
2023/07/19 04:29:57;;;;;;;;;;;;;;;16.63;100.00;96341.69;5089078;28;19959;-74
2023/07/19 04:32:23;;;;;;;;;;;;;;;16.68;100.00;96340.13;5106010;28;19934;-74
2023/07/19 04:34:49;;;;;;;;;;;;;;;16.74;100.00;96339.88;5106941;28;19929;-74
2023/07/19 04:37:15;;;;;;;;;;;;;;;16.79;100.00;96347.03;5089676;28;20216;-74
2023/07/19 04:39:41;;;;;;;;;;;;;;;16.83;100.00;96345.50;5106946;28;19939;-76
2023/07/19 04:42:08;;;;;;;;;;;;;;;16.86;100.00;96342.31;5088746;28;19942;-74
2023/07/19 04:44:34;;;;;;;;;;;;;;;16.90;100.00;96337.31;5106964;28;20098;-72
2023/07/19 04:47:00;;;;;;;;;;;;;;;16.95;100.00;96337.34;5106958;28;19982;-71
2023/07/19 04:49:25;;;;;;;;;;;;;;;16.96;100.00;96329.09;5106374;28;20210;-72
2023/07/19 04:51:51;;;;;;;;;;;;;;;17.00;100.00;96334.69;5089367;28;20026;-71
2023/07/19 04:54:17;;;;;;;;;;;;;;;17.05;100.00;96332.06;5105542;28;20220;-71
2023/07/19 04:56:43;;;;;;;;;;;;;;;17.11;100.00;96330.19;5107055;28;19957;-72
2023/07/19 04:59:09;;;;;;;;;;;;;;;17.16;100.00;96330.22;5107482;28;19996;-72
2023/07/19 05:01:35;;;;;;;;;;;;;;;17.22;100.00;96326.53;5105478;28;19939;-74
2023/07/19 05:04:01;;;;;;;;;;;;;;;17.29;100.00;96321.75;5107394;28;19934;-73
2023/07/19 05:06:27;;;;;;;;;;;;;;;17.35;100.00;96323.34;5105409;28;19937;-73
2023/07/19 05:08:52;;;;;;;;;;;;;;;17.47;100.00;96319.63;5089205;28;20230;-73
2023/07/19 05:11:19;;;;;;;;;;;;;;;17.56;100.00;96316.22;5089156;28;19951;-73
2023/07/19 05:13:45;;;;;;;;;;;;;;;17.70;100.00;96319.13;5088398;28;20252;-73
2023/07/19 05:16:11;;;;;;;;;;;;;;;17.86;100.00;96311.97;5105116;28;19938;-73
2023/07/19 05:18:37;;;;;;;;;;;;;;;18.02;100.00;96307.44;5105249;28;20133;-73
2023/07/19 05:21:03;;;;;;;;;;;;;;;18.19;100.00;96310.56;5105106;28;19946;-72
2023/07/19 05:23:28;;;;;;;;;;;;;;;18.38;100.00;96310.78;5087038;28;19946;-73
2023/07/19 05:25:55;;;;;;;;;;;;;;;18.59;100.00;96313.38;5105798;28;19943;-73
2023/07/19 05:28:21;;;;;;;;;;;;;;;18.79;100.00;96308.00;5088121;28;19936;-73
2023/07/19 05:30:47;;;;;;;;;;;;;;;19.00;100.00;96305.22;5088691;28;20008;-73
2023/07/19 05:33:13;;;;;;;;;;;;;;;19.23;100.00;96309.06;5088030;28;20252;-73
2023/07/19 05:35:38;;;;;;;;;;;;;;;19.44;100.00;96299.88;5088792;28;19939;-73
2023/07/19 05:38:05;;;;;;;;;;;;;;;19.68;100.00;96299.16;5105590;28;19961;-79
2023/07/19 05:40:31;;;;;;;;;;;;;;;19.90;100.00;96293.38;5104796;28;19929;-75
2023/07/19 05:42:57;;;;;;;;;;;;;;;20.13;98.95;96291.03;5104633;28;19941;-72
2023/07/19 05:45:23;;;;;;;;;;;;;;;20.36;99.52;96295.56;5104872;28;19935;-72
2023/07/19 05:47:48;;;;;;;;;;;;;;;20.43;95.98;96292.53;5105714;28;20224;-72
2023/07/19 05:50:14;;;;;;;;;;;;;;;20.47;97.40;96307.69;5105011;28;20243;-71
2023/07/19 05:52:40;;;;;;;;;;;;;;;20.44;96.91;96299.47;5088264;28;20213;-72
2023/07/19 05:55:07;;;;;;;;;;;;;;;20.34;98.01;96315.56;5105159;28;19939;-73
2023/07/19 05:57:33;;;;;;;;;;;;;;;20.36;98.94;96310.75;5104374;28;19963;-72
2023/07/19 06:00:13;;;;;;;;;;;;;;;20.58;99.99;96312.91;5104352;28;19936;-72
2023/07/19 06:02:40;;;;;;;;;;;;;;;20.88;94.97;96301.06;5105706;28;19945;-72
2023/07/19 06:05:06;;;;;;;;;;;;;;;21.13;96.51;96318.59;5104958;28;19943;-72
2023/07/19 06:07:32;;;;;;;;;;;;;;;21.31;89.87;96292.19;5105843;28;19941;-72
2023/07/19 06:09:58;;;;;;;;;;;;;;;21.34;90.28;96303.09;5105676;28;19950;-71
2023/07/19 06:12:24;;;;;;;;;;;;;;;21.44;87.62;96296.81;5105763;28;19939;-72
2023/07/19 06:14:50;;;;;;;;;;;;;;;21.60;86.21;96292.81;5087131;28;19943;-73
2023/07/19 06:17:16;;;;;;;;;;;;;;;21.74;83.85;96276.06;5104933;28;19965;-75
2023/07/19 06:19:42;;;;;;;;;;;;;;;21.80;83.02;96275.69;5105272;28;20026;-77
2023/07/19 06:22:08;;;;;;;;;;;;;;;21.91;81.76;96275.50;5087755;28;19951;-76
2023/07/19 06:24:33;;;;;;;;;;;;;;;21.99;80.18;96272.16;5105512;28;19939;-76
2023/07/19 06:26:59;;;;;;;;;;;;;;;22.18;84.77;96301.44;5103780;28;19937;-76
2023/07/19 06:29:25;;;;;;;;;;;;;;;22.37;84.46;96296.81;5104404;28;19944;-76
2023/07/19 06:31:51;;;;;;;;;;;;;;;22.53;80.04;96275.13;5103763;28;19957;-77
2023/07/19 06:34:17;;;;;;;;;;;;;;;22.65;76.58;96248.69;5105464;28;20095;-73
2023/07/19 06:36:43;;;;;;;;;;;;;;;22.72;71.05;96219.69;5105767;28;20204;-73
2023/07/19 06:39:09;;;;;;;;;;;;;;;22.80;71.68;96224.28;5086774;28;19952;-73
2023/07/19 06:41:35;;;;;;;;;;;;;;;22.93;71.43;96225.34;5086754;28;20000;-72
2023/07/19 06:44:01;;;;;;;;;;;;;;;22.97;69.51;96212.16;5086704;28;19953;-73
2023/07/19 06:46:27;;;;;;;;;;;;;;;23.16;73.08;96241.44;5087533;28;19984;-72
2023/07/19 06:48:52;;;;;;;;;;;;;;;23.37;66.61;96198.91;5103549;28;19945;-73
2023/07/19 06:51:18;;;;;;;;;;;;;;;23.59;72.01;96225.66;5103489;28;19953;-78
2023/07/19 06:53:44;;;;;;;;;;;;;;;23.69;65.34;96197.84;5105089;28;19943;-72
2023/07/19 06:56:10;;;;;;;;;;;;;;;23.75;67.19;96215.34;5104513;28;19949;-72
2023/07/19 06:58:36;;;;;;;;;;;;;;;23.88;68.17;96219.06;5104168;28;20204;-72
2023/07/19 07:01:02;;;;;;;;;;;;;;;24.02;62.83;96192.97;5087235;28;20287;-72
2023/07/19 07:03:29;;;;;;;;;;;;;;;24.26;68.38;96234.63;5086444;28;19984;-72
2023/07/19 07:05:55;;;;;;;;;;;;;;;24.45;61.48;96176.16;5086392;28;19942;-72
2023/07/19 07:08:21;;;;;;;;;;;;;;;24.65;68.90;96249.88;5087286;28;20142;-72
2023/07/19 07:10:46;;;;;;;;;;;;;;;24.75;62.84;96254.13;5086442;28;20252;-76
2023/07/19 07:13:12;;;;;;;;;;;;;;;24.94;63.81;96274.50;5105173;28;19942;-73
2023/07/19 07:15:38;;;;;;;;;;;;;;;25.10;63.14;96286.38;5104944;28;19937;-73
2023/07/19 07:18:04;;;;;;;;;;;;;;;25.23;58.27;96252.47;5104248;28;19973;-73
2023/07/19 07:20:30;;;;;;;;;;;;;;;25.27;58.66;96251.50;5104856;28;19952;-73
2023/07/19 07:22:56;;;;;;;;;;;;;;;25.29;61.05;96281.50;5103140;28;19991;-73
2023/07/19 07:25:22;;;;;;;;;;;;;;;25.33;59.17;96278.19;5086328;28;19940;-73
2023/07/19 07:27:48;;;;;;;;;;;;;;;25.39;61.22;96283.06;5103185;28;19974;-72
2023/07/19 07:30:14;;;;;;;;;;;;;;;25.39;61.07;96293.81;5086298;28;19964;-78
2023/07/19 07:32:40;;;;;;;;;;;;;;;25.32;52.15;96266.66;5087310;28;19994;-81
2023/07/19 07:35:06;;;;;;;;;;;;;;;25.14;60.61;96308.78;5103019;28;20243;-82
2023/07/19 07:37:32;;;;;;;;;;;;;;;25.05;55.25;96289.19;5102384;28;19933;-84
2023/07/19 07:39:58;;;;;;;;;;;;;;;25.12;58.86;96313.69;5102864;28;19940;-85
2023/07/19 07:42:24;;;;;;;;;;;;;;;25.21;58.89;96311.03;5103139;28;19934;-85
2023/07/19 07:44:50;;;;;;;;;;;;;;;25.25;56.19;96299.34;5105009;28;19939;-85
2023/07/19 07:47:17;;;;;;;;;;;;;;;25.14;54.79;96299.94;5107030;28;19996;-72
2023/07/19 07:49:43;;;;;;;;;;;;;;;25.08;49.09;96284.00;5106907;28;19946;-78
2023/07/19 07:52:11;;;;;;;;;;;;;;;25.11;52.63;96296.78;5089905;28;20008;-78
2023/07/19 07:54:38;;;;;;;;;;;;;;;25.25;54.92;96315.44;5107956;28;19946;-79
2023/07/19 07:57:03;;;;;;;;;;;;;;;25.43;56.51;96310.88;5108353;28;19958;-79
2023/07/19 07:59:30;;;;;;;;;;;;;;;25.59;57.19;96302.31;5107829;28;19941;-79
2023/07/19 08:01:56;;;;;;;;;;;;;;;25.63;55.26;96312.09;5106932;28;19943;-80
2023/07/19 08:04:22;;;;;;;;;;;;;;;25.73;52.32;96305.63;5107001;28;19934;-79
2023/07/19 08:06:48;;;;;;;;;;;;;;;25.81;50.29;96299.44;5106559;28;19985;-80
2023/07/19 08:09:13;;;;;;;;;;;;;;;25.92;51.75;96307.97;5106587;28;19934;-72
2023/07/19 08:11:39;;;;;;;;;;;;;;;26.00;49.91;96311.75;5107158;28;19958;-72
2023/07/19 08:14:05;;;;;;;;;;;;;;;26.19;50.82;96306.00;5090217;28;19944;-72
2023/07/19 08:16:31;;;;;;;;;;;;;;;26.31;45.34;96298.00;5089453;28;19945;-73
2023/07/19 08:18:57;;;;;;;;;;;;;;;26.35;48.76;96300.84;5089364;28;19970;-73
2023/07/19 08:21:24;;;;;;;;;;;;;;;26.47;50.39;96306.34;5089269;28;19946;-72
2023/07/19 08:23:53;;;;;;;;;;;;;;;26.66;51.09;96306.72;5090115;28;20203;-77
2023/07/19 08:26:20;;;;;;;;;;;;;;;26.85;50.94;96303.59;5108150;28;19935;-83
2023/07/19 08:28:45;;;;;;;;;;;;;;;26.96;49.02;96290.56;5107298;28;19938;-84
2023/07/19 08:31:11;;;;;;;;;;;;;;;27.05;45.94;96293.22;5107379;28;19949;-83
2023/07/19 08:33:37;;;;;;;;;;;;;;;27.00;44.90;96278.03;5109243;28;19945;-83
2023/07/19 08:36:03;;;;;;;;;;;;;;;26.93;40.13;96275.06;5109308;28;19938;-83
2023/07/19 08:38:29;;;;;;;;;;;;;;;26.83;46.10;96280.84;5107870;28;19939;-84
2023/07/19 08:41:06;;;;;;;;;;;;;;;26.82;49.02;96290.03;5089212;28;20186;-85
2023/07/19 08:43:33;;;;;;;;;;;;;;;26.91;50.17;96296.94;5105985;28;20102;-73
2023/07/19 08:45:59;;;;;;;;;;;;;;;26.98;45.57;96280.25;5106688;28;19948;-73
2023/07/19 08:48:25;;;;;;;;;;;;;;;27.10;47.64;96282.22;5106885;28;19942;-73
2023/07/19 08:50:55;;;;;;;;;;;;;;;27.23;47.21;96269.66;5089579;28;19962;-73
2023/07/19 08:53:23;;;;;;;;;;;;;;;27.32;46.52;96268.47;5105918;28;19943;-73
2023/07/19 08:55:49;;;;;;;;;;;;;;;27.44;44.44;96264.22;5068051;28;20157;-73
2023/07/19 08:58:18;;;;;;;;;;;;;;;27.56;41.46;96260.81;5067882;28;19945;-73
2023/07/19 09:00:48;;;;;;;;;;;;;;;27.72;45.51;96259.84;5068672;28;19934;-72
2023/07/19 09:03:15;;;;;;;;;;;;;;;27.85;40.73;96252.56;5068843;28;19941;-73
2023/07/19 09:05:41;;;;;;;;;;;;;;;27.89;43.11;96266.19;5067778;28;19938;-73
2023/07/19 09:08:10;;;;;;;;;;;;;;;27.76;40.63;96257.28;5068500;28;19940;-73
2023/07/19 09:10:36;;;;;;;;;;;;;;;27.75;42.14;96263.75;5068331;28;19972;-73
2023/07/19 09:13:07;;;;;;;;;;;;;;;27.79;42.02;96255.81;5068531;28;20030;-73
2023/07/19 09:15:34;;;;;;;;;;;;;;;27.87;43.55;96260.34;5068273;28;19937;-73
2023/07/19 09:18:01;;;;;;;;;;;;;;;27.96;44.19;96261.03;5067903;28;20275;-74
2023/07/19 09:20:28;;;;;;;;;;;;;;;27.91;39.64;96243.16;5068332;28;20150;-73
2023/07/19 09:22:55;;;;;;;;;;;;;;;27.98;40.29;96258.00;5084869;28;19929;-73
2023/07/19 09:25:21;;;;;;;;;;;;;;;28.03;41.51;96257.78;5067474;28;19940;-73
2023/07/19 09:27:47;;;;;;;;;;;;;;;28.14;40.38;96256.22;5086524;28;20202;-73
2023/07/19 09:30:14;;;;;;;;;;;;;;;28.21;40.56;96244.88;5105593;28;19943;-73
2023/07/19 09:32:40;;;;;;;;;;;;;;;28.11;41.96;96241.47;5106314;28;19947;-73
2023/07/19 09:35:07;;;;;;;;;;;;;;;28.23;40.71;96254.19;5106716;28;19939;-73
2023/07/19 09:37:33;;;;;;;;;;;;;;;28.41;43.86;96249.38;5104784;28;20137;-76
2023/07/19 09:39:59;;;;;;;;;;;;;;;28.56;41.60;96249.81;5088706;28;20122;-78
2023/07/19 09:42:25;;;;;;;;;;;;;;;28.45;39.56;96249.47;5105499;28;20123;-79
2023/07/19 09:44:52;;;;;;;;;;;;;;;28.44;40.87;96248.69;5088565;28;19952;-79
2023/07/19 09:47:18;;;;;;;;;;;;;;;28.44;38.49;96240.59;5104953;28;20219;-79
2023/07/19 09:49:44;;;;;;;;;;;;;;;28.39;40.35;96246.22;5106271;28;20022;-79
2023/07/19 09:52:16;;;;;;;;;;;;;;;28.27;38.85;96255.09;5103871;28;19956;-79
2023/07/19 09:54:43;;;;;;;;;;;;;;;28.18;41.39;96250.94;5087314;28;19954;-79
2023/07/19 09:57:09;;;;;;;;;;;;;;;28.17;41.67;96252.84;5104398;28;19957;-80
2023/07/19 09:59:37;;;;;;;;;;;;;;;28.23;40.24;96243.41;5104991;28;19939;-72
2023/07/19 10:02:03;;;;;;;;;;;;;;;28.15;39.23;96241.59;5104168;28;19939;-73
2023/07/19 10:04:33;;;;;;;;;;;;;;;28.05;40.32;96247.44;5105120;28;19938;-72
2023/07/19 10:07:02;;;;;;;;;;;;;;;27.87;39.22;96244.97;5104192;28;20237;-72
2023/07/19 10:09:28;;;;;;;;;;;;;;;27.84;40.67;96242.88;5086711;28;19961;-72
2023/07/19 10:11:58;;;;;;;;;;;;;;;28.01;40.92;96246.53;5087960;28;20243;-72
2023/07/19 10:14:26;;;;;;;;;;;;;;;28.19;40.29;96247.13;5088046;28;20219;-81
2023/07/19 10:16:57;;;;;;;;;;;;;;;28.36;39.89;96240.72;5103957;28;19940;-73
2023/07/19 10:19:23;;;;;;;;;;;;;;;28.38;38.29;96236.53;5087829;28;19947;-73
2023/07/19 10:22:07;;;;;;;;;;;;;;;28.46;39.83;96232.16;5104686;28;20021;-74
2023/07/19 10:24:35;;;;;;;;;;;;;;;28.53;38.84;96232.41;5105628;28;19939;-73
2023/07/19 10:27:05;;;;;;;;;;;;;;;28.38;36.99;96233.84;5104478;28;19943;-73
2023/07/19 10:29:38;;;;;;;;;;;;;;;28.34;38.61;96233.72;5104423;28;19945;-73
2023/07/19 10:32:04;;;;;;;;;;;;;;;28.45;39.12;96227.88;5104314;28;19948;-77
2023/07/19 10:34:30;;;;;;;;;;;;;;;28.70;39.63;96229.44;5103681;28;19937;-73
2023/07/19 10:37:01;;;;;;;;;;;;;;;28.97;35.94;96220.94;5104341;28;19931;-78
2023/07/19 10:39:27;;;;;;;;;;;;;;;29.23;38.40;96225.94;5071008;28;19940;-78
2023/07/19 10:41:53;;;;;;;;;;;;;;;29.39;37.26;96221.34;5104426;28;19939;-78
2023/07/19 10:44:20;;;;;;;;;;;;;;;29.37;36.66;96220.91;5105297;28;19940;-78
2023/07/19 10:46:46;;;;;;;;;;;;;;;29.24;36.38;96225.59;5103663;28;20242;-77
2023/07/19 10:49:12;;;;;;;;;;;;;;;29.31;37.95;96228.47;5104119;28;20104;-78
2023/07/19 10:51:38;;;;;;;;;;;;;;;29.46;38.00;96229.66;5104582;28;19998;-83
2023/07/19 10:54:06;;;;;;;;;;;;;;;29.56;36.22;96225.66;5087419;28;20226;-74
2023/07/19 10:56:32;;;;;;;;;;;;;;;29.68;35.01;96225.59;5103807;28;19959;-73
2023/07/19 10:58:59;;;;;;;;;;;;;;;29.74;36.16;96223.44;5086486;28;19945;-73
2023/07/19 11:01:29;;;;;;;;;;;;;;;29.81;36.86;96217.44;5104487;28;20244;-73
2023/07/19 11:04:00;;;;;;;;;;;;;;;29.66;37.61;96232.47;5104099;28;19944;-73
2023/07/19 11:06:26;;;;;;;;;;;;;;;29.61;37.83;96222.72;5104146;28;20214;-73
2023/07/19 11:08:52;;;;;;;;;;;;;;;29.64;36.39;96224.72;5086381;28;19948;-73
2023/07/19 11:11:18;;;;;;;;;;;;;;;29.79;37.17;96220.47;5086394;28;19959;-73
2023/07/19 11:13:44;;;;;;;;;;;;;;;29.97;38.19;96207.41;5087174;28;19991;-73
2023/07/19 11:16:11;;;;;;;;;;;;;;;30.14;35.69;96195.44;5086338;28;19949;-73
2023/07/19 11:18:38;;;;;;;;;;;;;;;30.17;35.14;96194.72;5086243;28;19966;-73
2023/07/19 11:21:04;;;;;;;;;;;;;;;30.33;36.05;96195.53;5089846;28;19942;-73
2023/07/19 11:23:35;;;;;;;;;;;;;;;30.44;34.79;96195.75;5107392;28;19941;-73
2023/07/19 11:26:02;;;;;;;;;;;;;;;30.60;37.10;96189.53;5108300;28;19944;-73
2023/07/19 11:28:35;;;;;;;;;;;;;;;30.65;33.67;96176.47;5107354;28;19941;-74
2023/07/19 11:31:03;;;;;;;;;;;;;;;30.72;33.65;96181.25;5091040;28;19956;-73
2023/07/19 11:33:29;;;;;;;;;;;;;;;30.68;33.34;96180.41;5107794;28;19933;-73
2023/07/19 11:35:55;;;;;;;;;;;;;;;30.36;32.47;96177.78;5107247;28;20266;-73
2023/07/19 11:38:22;;;;;;;;;;;;;;;29.97;33.34;96174.19;5107218;28;19945;-73
2023/07/19 11:40:48;;;;;;;;;;;;;;;29.72;34.57;96179.78;5108739;28;19931;-73
2023/07/19 11:43:13;;;;;;;;;;;;;;;29.50;33.70;96178.41;5107366;28;19990;-73
2023/07/19 11:45:40;;;;;;;;;;;;;;;29.34;35.75;96178.41;5090010;28;19938;-77
2023/07/19 11:48:06;;;;;;;;;;;;;;;29.27;35.30;96180.91;5090856;28;20224;-73
2023/07/19 11:50:32;;;;;;;;;;;;;;;29.30;35.83;96182.91;5107923;28;19942;-79
2023/07/19 11:53:00;;;;;;;;;;;;;;;29.32;35.25;96178.75;5089915;28;19981;-80
2023/07/19 11:55:26;;;;;;;;;;;;;;;29.25;35.24;96180.47;5107914;28;19937;-80
2023/07/19 11:57:53;;;;;;;;;;;;;;;29.22;36.45;96173.06;5089795;28;19956;-80
2023/07/19 12:00:20;;;;;;;;;;;;;;;29.15;36.66;96184.47;5106740;28;19946;-80
2023/07/19 12:02:47;;;;;;;;;;;;;;;29.02;37.19;96183.72;5106736;28;19933;-79
2023/07/19 12:05:14;;;;;;;;;;;;;;;28.90;37.08;96179.13;5107742;28;19939;-73
2023/07/19 12:07:40;;;;;;;;;;;;;;;29.04;36.94;96175.25;5107175;28;20111;-72
2023/07/19 12:10:06;;;;;;;;;;;;;;;29.41;38.47;96183.19;5106475;28;19938;-73
2023/07/19 12:12:33;;;;;;;;;;;;;;;29.69;36.92;96180.41;5089921;28;19964;-73
2023/07/19 12:15:00;;;;;;;;;;;;;;;29.81;36.72;96169.56;5106322;28;19943;-73
2023/07/19 12:17:26;;;;;;;;;;;;;;;29.76;38.26;96177.94;5106367;28;19961;-73
2023/07/19 12:19:53;;;;;;;;;;;;;;;29.77;37.71;96174.09;5108076;28;19950;-72
2023/07/19 12:22:19;;;;;;;;;;;;;;;29.86;37.94;96171.19;5106906;28;19943;-79
2023/07/19 12:24:44;;;;;;;;;;;;;;;29.97;37.76;96174.97;5106283;28;19952;-73
2023/07/19 12:27:10;;;;;;;;;;;;;;;29.96;37.46;96162.56;5089329;28;19944;-73
2023/07/19 12:29:36;;;;;;;;;;;;;;;29.83;36.38;96159.19;5106089;28;19937;-73
2023/07/19 12:32:03;;;;;;;;;;;;;;;29.75;37.02;96166.31;5105915;28;19962;-73
2023/07/19 12:34:29;;;;;;;;;;;;;;;29.43;37.37;96153.94;5107168;28;19941;-73
2023/07/19 12:36:55;;;;;;;;;;;;;;;29.21;37.33;96152.56;5089180;28;19941;-73
2023/07/19 12:39:24;;;;;;;;;;;;;;;29.22;38.18;96148.75;5106049;28;19941;-73